Terminal Aerodrome Forecast
Issued by NWS Cleveland, OH

Home | Current Version | Previous Version | Text Only | Print | Product List | Glossary On
Versions: 1 2 3 4 5 6 7 8 9 10 11 12 13 14 15 16 17 18
000
FTUS41 KCLE 232300
TAFMFD
TAF
KMFD 232340Z 2400/2424 13015G25KT 6SM -SHRA SCT012 OVC045
     FM240500 13015G25KT 5SM -SHRA SCT006 OVC015
     FM240700 14015G25KT 4SM -SHRA OVC006
     FM241100 20015G25KT P6SM VCSH BKN012 OVC020
     FM241700 23028G40KT P6SM OVC025
      TEMPO 2417/2419 3SM -SHRA=

USA.gov is the U.S. government's official web portal to all federal, state and local government web resources and services.